Flight Track Log - Related Links

Times and Time Zones

All times are in EDT time to prevent confusion due to time zone crossing. See the C-FEJP flight status page for this flight to view local times or setup timezone preferences in your user account.

Time Position Orientation Groundspeed Altitude Reporting Facility
EDT Latitude Longitude Course Direction KTS MPH feet Rate Location/Type
Fri 01:27:59 PM 45.3000 -75.6667 259° West 60 69 600  Level Montreal Center
Fri 01:32:34 PM 45.2500 -76.0333 263° West 270 311 10,800 2,167 Climbing Toronto Center
Fri 01:33:59 PM 45.2333 -76.2333 248° West 310 357 13,600 1,986 Climbing Montreal Center
Fri 01:34:59 PM 45.2000 -76.3500 248° West 330 380 15,600 2,000 Climbing Montreal Center
Fri 01:35:59 PM 45.1667 -76.4667 248° West 340 391 17,600 2,050 Climbing Montreal Center
Fri 01:36:59 PM 45.1333 -76.5833 248° West 330 380 19,700 2,000 Climbing Montreal Center
Fri 01:37:59 PM 45.1000 -76.7000 248° West 330 380 21,600 2,000 Climbing Montreal Center
Fri 01:38:59 PM 45.0667 -76.8167 248° West 330 380 23,700 1,800 Climbing Montreal Center
Fri 01:39:59 PM 45.0333 -76.9333 245° Southwest 330 380 25,200 1,450 Climbing Montreal Center
Fri 01:40:59 PM 44.9833 -77.0833 248° West 330 380 26,600 1,400 Climbing Montreal Center
Fri 01:41:59 PM 44.9500 -77.2000 215° Southwest 340 391 28,000 884 Climbing Montreal Center
Fri 01:42:34 PM 44.9167 -77.2333 257° West 340 391 28,000  Level Toronto Center
Fri 01:43:59 PM 44.8833 -77.4333 248° West 340 391 28,000  Level Montreal Center
Fri 01:44:59 PM 44.8500 -77.5500 242° Southwest 340 391 28,000  Level Montreal Center
Fri 01:45:59 PM 44.8000 -77.6833 239° Southwest 340 391 28,000  Level Montreal Center
Fri 01:46:59 PM 44.7500 -77.8000 245° Southwest 340 391 28,000  Level Montreal Center
Fri 01:47:34 PM 44.7333 -77.8500 239° Southwest 340 391 28,000  Level Toronto Center
Fri 01:48:34 PM 44.6833 -77.9667 249° West 340 391 28,000  Level Toronto Center
Fri 01:49:59 PM 44.6333 -78.1500 245° Southwest 340 391 28,000 -300 Level Montreal Center
Fri 01:50:34 PM 44.6167 -78.2000 248° West 340 391 27,400 -1,832 Descending Toronto Center
Fri 01:51:34 PM 44.5833 -78.3167 231° Southwest 330 380 25,100 -2,350 Descending Toronto Center
Fri 01:52:34 PM 44.5167 -78.4333 245° Southwest 330 380 22,700 -2,350 Descending Toronto Center
Fri 01:53:34 PM 44.4833 -78.5333 239° Southwest 330 380 20,400 -2,350 Descending Toronto Center
Fri 01:54:34 PM 44.4333 -78.6500 235° Southwest 330 380 18,000 -2,250 Descending Toronto Center
Fri 01:55:34 PM 44.3833 -78.7500 230° Southwest 320 368 15,900 -2,100 Descending Toronto Center
Fri 01:56:34 PM 44.3333 -78.8333 235° Southwest 310 357 13,800 -2,150 Descending Toronto Center
Fri 01:57:34 PM 44.2833 -78.9333 235° Southwest 290 334 11,600 -1,500 Descending Toronto Center
Fri 01:58:34 PM 44.2500 -79.0000 235° Southwest 270 311 10,800 -800 Descending Toronto Center
Fri 01:59:34 PM 44.2000 -79.1000 224° Southwest 250 288 10,000 -700 Descending Toronto Center
Fri 02:00:34 PM 44.1500 -79.1667 235° Southwest 250 288 9,400 -600 Descending Toronto Center
Fri 02:01:34 PM 44.1167 -79.2333 216° Southwest 220 253 8,800 -600 Descending Toronto Center
Fri 02:02:34 PM 44.0667 -79.2833 193° South 220 253 8,200 -700 Descending Toronto Center
Fri 02:03:34 PM 44.0167 -79.3000 190° South 220 253 7,400 -900 Descending Toronto Center
Fri 02:04:34 PM 43.9500 -79.3167 194° South 220 253 6,400 -900 Descending Toronto Center
Fri 02:05:34 PM 43.9000 -79.3333 216° Southwest 210 242 5,600 -750 Descending Toronto Center
Fri 02:06:34 PM 43.8500 -79.3833 216° Southwest 210 242 4,900 -800 Descending Toronto Center
Fri 02:07:34 PM 43.8167 -79.4167 230° Southwest 210 242 4,000 -1,000 Descending Toronto Center
Fri 02:08:34 PM 43.7667 -79.5000 216° Southwest 200 230 2,900 -950 Descending Toronto Center
Fri 02:09:34 PM 43.7333 -79.5333 216° Southwest 180 207 2,100 -800 Descending Toronto Center

Login

Don't have an account? Register now (free) for customized features, flight alerts, and more!